Warning: Javascript must be enabled to use all the features on this page!


Page Loading - Please Wait...

Click to hideNews Bulletins

Peak Streamflow for the Nation

USGS 01408120 North Branch Metedeconk River near Lakewood NJ

Ocean County, New Jersey
Hydrologic Unit Code 02040301
Latitude  40°05'30", Longitude  74°09'09" NAD83
Drainage area 34.9  square miles
Contributing drainage area 34.9  square miles
Gage datum 3.89 feet above NGVD29
Output formats
Table
Graph
Tab-separated file
peakfq (watstore) format
Reselect output format
Water
Year
Date Gage
Height
(feet)
Stream-
flow
(cfs)
1973 1972-11-09 7.03 412
1974 1973-10-30 7.35 508
1975 1974-12-17 7.52 564
1976 1976-08-10   340
1977 1977-07-13 7.01 411
1978 1977-11-08 9.28 1,370
1979 1979-01-25 8.52 959
1980 1980-04-10 7.56 577
1981 1980-11-29 5.30 146
1982 1982-07-28 6.47 312
1983 1983-04-11 6.86 371
1984 1984-03-29 8.50 951
1985 1985-09-28 6.75 359
1986 1986-04-18 7.53 572
1987 1987-01-02 7.11 449
1988 1988-02-12 6.48 302
1989 1989-05-11 7.44 598
1990 1989-10-20 7.29 544
1991 1991-01-12 7.34 561
1992 1992-08-18 7.51 624
1993 1992-12-12 8.15 816
1994 1994-01-29 7.17 465
1995 1995-08-06 6.29 272
1996 1995-11-14 7.18 468
1997 1996-10-20 7.79 661
1998 1998-06-14 7.78 657
1999 1999-01-03 7.77 654
2000 2000-09-15 6.70 347
2001 2001-06-17 8.00 740
2002 2002-06-07 5.50 180
2003 2003-02-23 7.17 465
2004 2004-02-07 7.33 510
2005 2005-03-29 6.44 291
2006 2005-10-15 9.97 1,8002
2007 2007-04-16 8.28 853
2008 2008-09-26 6.78 315
2009 2008-12-12 7.86 663
2010 2010-03-14 8.442 1,080
2011 2011-08-28 11.40 2,500
2012 2012-04-23 6.85 343
2013 2012-12-27 9.322 1,080
2014 2014-05-01 8.37 971
2015 2014-12-09 7.29 508
2016 2015-10-03 6.00 217
2017 2017-05-06 8.04 800
2018 2018-08-13 10.06 1,560
2019 2018-11-25 8.41 786
2020 2020-06-06 7.54 509
2021 2021-08-22 6.90 333
?
  Peak Gage-Height Qualification Codes.
?
  Peak Streamflow Qualification Codes.